• Join FlightAware (Why Join?)
  • Login
  • US Flag 
03:03PM EDT


 

Airport Tracker/Info


-or-


 

Live Flight TrackerFlight Track Log ✈ THY2454 ✈ 16-May-2013 ✈ LTBA / IST - LTAF / ADA

Flight Track Log - Related Links

Times and Time Zones

All times are in EDT time to prevent confusion due to time zone crossing. See the THY2454 flight status page for this flight to view local times or setup timezone preferences in your user account.

Time Position Orientation Groundspeed Altitude Reporting Facility
EDT Latitude Longitude Course Direction KTS MPH feet Rate Location/Type
11:23PM 40.5734 29.5368 126° Southeast  Level Estimated
11:24PM 40.5057 29.6553 127° Southeast  Level Estimated
11:25PM 40.4379 29.7735 127° Southeast  Level Estimated
11:26PM 40.3700 29.8914 127° Southeast  Level Estimated
11:27PM 40.3019 30.0091 127° Southeast  Level Estimated
11:28PM 40.2338 30.1266 127° Southeast  Level Estimated
11:29PM 40.1655 30.2439 127° Southeast  Level Estimated
11:30PM 40.0971 30.3609 127° Southeast  Level Estimated
11:31PM 40.0286 30.4777 127° Southeast  Level Estimated
11:32PM 39.9599 30.5942 128° Southeast  Level Estimated
11:33PM 39.8912 30.7105 128° Southeast  Level Estimated
11:34PM 39.8223 30.8266 128° Southeast  Level Estimated
11:35PM 39.7533 30.9425 128° Southeast  Level Estimated
11:36PM 39.6842 31.0581 128° Southeast  Level Estimated
11:37PM 39.6150 31.1735 128° Southeast  Level Estimated
11:38PM 39.5457 31.2886 128° Southeast  Level Estimated
11:39PM 39.4763 31.4035 128° Southeast  Level Estimated
11:40PM 39.4067 31.5182 128° Southeast  Level Estimated
11:41PM 39.3371 31.6327 128° Southeast  Level Estimated
11:42PM 39.2673 31.7469 128° Southeast  Level Estimated
11:43PM 39.1974 31.8609 128° Southeast  Level Estimated
11:44PM 39.1274 31.9747 128° Southeast  Level Estimated
11:45PM 39.0573 32.0883 128° Southeast  Level Estimated
11:46PM 38.9871 32.2016 129° Southeast  Level Estimated
11:47PM 38.9167 32.3147 129° Southeast  Level Estimated
11:48PM 38.8463 32.4276 129° Southeast  Level Estimated
11:49PM 38.7757 32.5402 129° Southeast  Level Estimated
11:50PM 38.7051 32.6527 129° Southeast  Level Estimated
11:51PM 38.6343 32.7649 129° Southeast  Level Estimated
11:52PM 38.5635 32.8769 129° Southeast  Level Estimated
11:53PM 38.4925 32.9887 129° Southeast  Level Estimated
11:54PM 38.4214 33.1002 129° Southeast  Level Estimated
11:55PM 38.3502 33.2115 129° Southeast  Level Estimated
11:56PM 38.2789 33.3227 129° Southeast  Level Estimated
11:57PM 38.2076 33.4336 129° Southeast  Level Estimated
11:58PM 38.1361 33.5442 129° Southeast  Level Estimated
11:59PM 38.0645 33.6547 129° Southeast  Level Estimated
12:00AM 37.9928 33.7649 130° Southeast  Level Estimated
12:01AM 37.9210 33.8750 130° Southeast  Level Estimated
12:02AM 37.8490 33.9848 130° Southeast  Level Estimated
12:03AM 37.7770 34.0944 130° Southeast  Level Estimated
12:04AM 37.7049 34.2038 130° Southeast  Level Estimated
12:05AM 37.6327 34.3129 130° Southeast  Level Estimated
12:06AM 37.5604 34.4219 130° Southeast  Level Estimated
12:07AM 37.4880 34.5306 130° Southeast  Level Estimated
12:08AM 37.4155 34.6392 130° Southeast  Level Estimated
12:09AM 37.3429 34.7475 130° Southeast  Level Estimated
12:10AM 37.2702 34.8556 130° Southeast  Level Estimated
12:11AM 37.1973 34.9635 130° Southeast  Level Estimated
12:12AM 37.1244 35.0712 130° Southeast  Level Estimated
12:13AM 37.0514 35.1787 130° Southeast  Level Estimated
12:14AM 36.9822 35.2804 130° Southeast  Level Estimated
12:15AM 36.9822 35.2804 202° Southwest  Level Estimated
12:16AM 36.9822 35.2804 202° Southwest  Level Estimated
12:17AM 36.9822 35.2804 202° Southwest  Level Estimated
12:18AM 36.9822 35.2804 202° Southwest  Level Estimated
12:19AM 36.9822 35.2804 202° Southwest  Level Estimated
12:20AM 36.9822 35.2804 202° Southwest  Level Estimated
12:21AM 36.9822 35.2804 202° Southwest  Level Estimated
12:22AM 36.9822 35.2804 202° Southwest  Level Estimated
12:23AM 36.9822 35.2804 202° Southwest  Level Estimated
12:24AM 36.9822 35.2804 202° Southwest  Level Estimated
12:25AM 36.9822 35.2804 202° Southwest  Level Estimated
12:26AM 36.9822 35.2804 202° Southwest  Level Estimated
12:27AM 36.9822 35.2804 202° Southwest  Level Estimated
12:28AM 36.9822 35.2804 202° Southwest  Level Estimated
12:29AM 36.9822 35.2804 202° Southwest  Level Estimated
12:30AM 36.9822 35.2804 202° Southwest  Level Estimated